Time;durP1;ratioP1;P1;durP2;ratioP2;P2;SDS_P1;SDS_P2;PMS_P1;PMS_P2;Temp;Humidity;BMP_temperature;BMP_pressure;BME280_temperature;BME280_humidity;BME280_pressure;Samples;Min_cycle;Max_cycle;Signal;HPM_P1;HPM_P2
2022/07/14 00:08:14;;;;;;;15.70;13.75;;;31.80;25.40;;;;;;21334787;27;20043;-61
2022/07/14 00:18:15;;;;;;;11.98;10.52;;;31.70;25.70;;;;;;21334367;27;20486;-61
2022/07/14 00:28:17;;;;;;;10.85;8.73;;;32.00;24.80;;;;;;21333427;27;20047;-60
2022/07/14 00:38:19;;;;;;;9.68;8.10;;;32.20;24.40;;;;;;21333227;27;20046;-59
2022/07/14 00:48:22;;;;;;;9.15;7.90;;;32.20;24.30;;;;;;21332870;27;20046;-59
2022/07/14 00:58:24;;;;;;;8.40;7.50;;;32.10;24.40;;;;;;21339227;27;20051;-59
2022/07/14 01:08:25;;;;;;;7.72;7.03;;;32.10;24.20;;;;;;21348991;27;20525;-59
2022/07/14 01:18:27;;;;;;;7.22;6.53;;;32.10;24.60;;;;;;21347929;27;20395;-59
2022/07/14 01:28:29;;;;;;;9.10;8.25;;;32.00;24.80;;;;;;21347776;27;20038;-59
2022/07/14 01:38:33;;;;;;;9.85;8.85;;;31.80;25.20;;;;;;21348040;27;20091;-59
2022/07/14 01:48:36;;;;;;;13.68;9.05;;;31.60;25.50;;;;;;21346200;27;20089;-58
2022/07/14 01:58:38;;;;;;;8.45;7.43;;;31.50;25.70;;;;;;21345749;27;20050;-58
2022/07/14 02:08:45;;;;;;;8.43;7.68;;;31.30;25.60;;;;;;21342181;27;20054;-59
2022/07/14 02:18:50;;;;;;;8.75;7.85;;;31.20;25.80;;;;;;21343903;27;20043;-58
2022/07/14 02:28:53;;;;;;;8.05;7.28;;;31.00;26.20;;;;;;21343675;27;20043;-59
2022/07/14 02:38:57;;;;;;;12.27;8.32;;;30.90;26.50;;;;;;21341525;27;20050;-58
2022/07/14 02:48:59;;;;;;;10.18;8.98;;;30.60;26.90;;;;;;21341099;27;20134;-59
2022/07/14 02:59:07;;;;;;;7.72;6.18;;;30.50;27.10;;;;;;21339806;27;20058;-59
2022/07/14 03:09:10;;;;;;;6.82;5.70;;;30.60;26.30;;;;;;21337941;27;20054;-60
2022/07/14 03:19:17;;;;;;;6.45;5.57;;;30.60;25.90;;;;;;21338290;27;20138;-60
2022/07/14 03:29:27;;;;;;;6.03;5.38;;;30.60;25.90;;;;;;21338372;27;20095;-58
2022/07/14 03:39:32;;;;;;;6.85;5.78;;;30.60;25.70;;;;;;21336935;27;20054;-59
2022/07/14 03:49:35;;;;;;;6.65;5.80;;;30.40;25.90;;;;;;21335563;27;20047;-60
2022/07/14 03:59:40;;;;;;;8.23;6.25;;;30.30;25.90;;;;;;21336197;27;20459;-59
2022/07/14 04:09:42;;;;;;;8.52;6.60;;;30.30;25.70;;;;;;21334525;27;20054;-59
2022/07/14 04:19:44;;;;;;;6.55;5.90;;;30.10;26.00;;;;;;21333967;27;20051;-60
2022/07/14 04:29:46;;;;;;;7.22;5.85;;;30.10;26.20;;;;;;21333944;27;20422;-59
2022/07/14 04:39:48;;;;;;;10.45;6.70;;;30.00;26.10;;;;;;21315279;27;20185;-59
2022/07/14 05:00:13;;;;;;;7.57;6.33;;;29.90;26.10;;;;;;21332490;27;20043;-58
2022/07/14 05:10:15;;;;;;;9.43;6.53;;;29.70;26.10;;;;;;21331938;27;20417;-61
2022/07/14 05:20:16;;;;;;;7.13;6.43;;;29.60;26.30;;;;;;21314056;27;20046;-59
2022/07/14 05:30:18;;;;;;;7.25;6.47;;;29.60;26.40;;;;;;21331970;27;20050;-59
2022/07/14 05:40:20;;;;;;;7.45;6.40;;;29.50;26.60;;;;;;21331115;27;20414;-60
2022/07/14 05:50:22;;;;;;;8.27;6.13;;;29.50;26.40;;;;;;21344067;27;20095;-60
2022/07/14 06:00:24;;;;;;;8.77;6.80;;;29.40;26.30;;;;;;21345183;27;20133;-58
2022/07/14 06:10:26;;;;;;;9.65;6.45;;;29.40;26.90;;;;;;21343483;27;20086;-60
2022/07/14 06:20:28;;;;;;;13.07;6.75;;;29.40;27.00;;;;;;21343793;27;20046;-59
2022/07/14 06:30:31;;;;;;;13.30;7.18;;;29.40;27.00;;;;;;21344173;27;20045;-60
2022/07/14 06:40:32;;;;;;;12.10;6.50;;;29.50;26.80;;;;;;21342479;27;20095;-61
2022/07/14 06:50:34;;;;;;;12.35;6.82;;;29.50;27.00;;;;;;21341151;27;20042;-59
2022/07/14 07:00:36;;;;;;;10.65;6.97;;;29.60;27.30;;;;;;21339819;27;20486;-58
2022/07/14 07:10:40;;;;;;;9.57;6.38;;;29.90;27.20;;;;;;21339068;27;20043;-60
2022/07/14 07:20:44;;;;;;;7.90;6.40;;;30.30;26.70;;;;;;21319429;27;20513;-58
2022/07/14 07:30:46;;;;;;;10.23;5.60;;;30.70;26.30;;;;;;21337445;27;20146;-59
2022/07/14 07:40:53;;;;;;;6.75;5.10;;;31.00;25.80;;;;;;21335556;27;20057;-59
2022/07/14 07:50:55;;;;;;;5.72;4.75;;;31.40;25.30;;;;;;21335278;27;20058;-59
2022/07/14 08:00:57;;;;;;;10.05;4.47;;;31.80;24.80;;;;;;21336143;27;20505;-60
2022/07/14 08:10:59;;;;;;;10.23;4.90;;;32.10;24.40;;;;;;21333660;27;20103;-59
2022/07/14 08:21:01;;;;;;;7.32;4.20;;;32.40;24.10;;;;;;21334428;27;20050;-59
2022/07/14 08:31:04;;;;;;;6.53;4.13;;;32.70;23.70;;;;;;21244836;27;20039;-65
2022/07/14 08:41:07;;;;;;;11.05;3.78;;;33.00;23.30;;;;;;21241820;28;20082;-60
2022/07/14 08:51:11;;;;;;;6.68;3.00;;;33.10;23.00;;;;;;21247101;27;20457;-58
2022/07/14 09:01:13;;;;;;;26.58;5.13;;;33.20;22.30;;;;;;21245525;27;20054;-53
2022/07/14 09:11:18;;;;;;;8.43;4.43;;;33.70;23.50;;;;;;21245629;27;20132;-58
2022/07/14 09:21:20;;;;;;;7.40;4.03;;;33.80;22.90;;;;;;21254492;27;20051;-52
2022/07/14 09:31:28;;;;;;;7.00;3.30;;;33.90;22.40;;;;;;21254913;27;20047;-59
2022/07/14 09:41:36;;;;;;;9.77;4.00;;;34.20;22.10;;;;;;21260082;27;20047;-51
2022/07/14 09:52:00;;;;;;;9.55;4.00;;;34.50;21.70;;;;;;21259087;27;20047;-64
2022/07/14 10:02:02;;;;;;;6.38;3.90;;;34.80;21.70;;;;;;21258479;27;20394;-59
2022/07/14 10:12:05;;;;;;;8.55;3.65;;;35.00;21.50;;;;;;21323605;27;20054;-63
2022/07/14 10:22:09;;;;;;;6.63;3.50;;;35.40;21.20;;;;;;21317895;27;20058;-59
2022/07/14 10:32:29;;;;;;;8.55;4.03;;;35.50;20.90;;;;;;21256561;27;20380;-64
2022/07/14 10:43:00;;;;;;;6.05;3.70;;;35.60;20.60;;;;;;21246766;27;20092;-59
2022/07/14 10:53:04;;;;;;;6.82;4.00;;;35.70;19.60;;;;;;21253335;27;20071;-59
2022/07/14 11:03:28;;;;;;;7.32;3.97;;;35.80;21.10;;;;;;21253708;27;20511;-59
2022/07/14 11:13:29;;;;;;;6.90;3.92;;;36.00;19.20;;;;;;21251363;27;20079;-55
2022/07/14 11:23:37;;;;;;;5.63;4.25;;;36.00;19.60;;;;;;21251435;27;20055;-59
2022/07/14 11:44:05;;;;;;;8.98;5.65;;;36.70;17.60;;;;;;21251826;27;20082;-57
2022/07/14 11:54:08;;;;;;;7.05;5.65;;;36.90;16.30;;;;;;21250907;27;20054;-57
2022/07/14 12:04:17;;;;;;;10.80;9.68;;;37.10;16.10;;;;;;21249808;27;20309;-59
2022/07/14 12:14:18;;;;;;;;;;;37.60;14.70;;;;;;21249946;27;20055;-62
2022/07/14 12:24:25;;;;;;;8.15;6.30;;;37.70;15.10;;;;;;21249900;27;19927;-60
2022/07/14 12:34:28;;;;;;;10.00;6.25;;;37.90;15.30;;;;;;21249576;27;20100;-60
2022/07/14 12:44:31;;;;;;;8.38;7.32;;;38.00;15.20;;;;;;21247845;28;20059;-55
2022/07/14 12:54:33;;;;;;;8.60;6.82;;;38.30;15.70;;;;;;21254413;27;20043;-55
2022/07/14 13:04:47;;;;;;;9.48;6.00;;;38.50;15.50;;;;;;21263607;27;20059;-55
2022/07/14 13:14:59;;;;;;;7.68;6.97;;;38.50;15.70;;;;;;21263220;27;20043;-55
2022/07/14 13:25:00;;;;;;;11.25;7.20;;;38.60;15.40;;;;;;21261976;27;20062;-57
2022/07/14 13:35:02;;;;;;;11.88;7.53;;;38.50;15.60;;;;;;21261488;27;20122;-56
2022/07/14 13:45:05;;;;;;;11.27;6.80;;;38.60;15.50;;;;;;21261606;27;20054;-55
2022/07/14 13:55:07;;;;;;;12.38;7.63;;;38.70;15.20;;;;;;21241330;27;20058;-55
2022/07/14 14:05:09;;;;;;;9.07;7.18;;;39.00;15.00;;;;;;21258276;27;20082;-55
2022/07/14 14:15:11;;;;;;;13.35;7.35;;;39.10;15.20;;;;;;21259030;27;20039;-55
2022/07/14 14:25:12;;;;;;;13.40;7.00;;;39.10;14.90;;;;;;21257671;27;20051;-60
2022/07/14 14:35:14;;;;;;;12.30;7.20;;;39.30;14.60;;;;;;21256421;27;20070;-58
2022/07/14 14:45:20;;;;;;;11.68;6.93;;;39.30;15.20;;;;;;21256013;27;20057;-58
2022/07/14 14:55:22;;;;;;;11.30;6.72;;;39.40;15.00;;;;;;21236163;27;20047;-58
2022/07/14 15:05:24;;;;;;;10.45;6.40;;;39.40;15.10;;;;;;21234629;27;20055;-61
2022/07/14 15:15:26;;;;;;;17.13;7.68;;;39.30;15.10;;;;;;21253510;27;20502;-62
2022/07/14 15:25:28;;;;;;;15.70;7.25;;;39.40;15.00;;;;;;21253318;27;20403;-61
2022/07/14 15:35:30;;;;;;;10.70;7.03;;;39.50;15.20;;;;;;21251777;27;20047;-60
2022/07/14 15:45:32;;;;;;;11.27;6.57;;;39.50;15.20;;;;;;21251077;27;20520;-60
2022/07/14 15:55:34;;;;;;;13.32;7.95;;;39.40;15.30;;;;;;21250523;27;20077;-56
2022/07/14 16:05:35;;;;;;;12.32;7.45;;;39.50;14.90;;;;;;21249952;27;20051;-63
2022/07/14 16:15:37;;;;;;;15.02;6.88;;;39.50;15.00;;;;;;21248256;27;20059;-60
2022/07/14 16:25:39;;;;;;;11.23;6.70;;;39.50;14.90;;;;;;21247202;27;20051;-56
2022/07/14 16:35:40;;;;;;;15.00;7.45;;;39.40;14.80;;;;;;21248311;27;20043;-58
2022/07/14 16:45:42;;;;;;;13.75;6.53;;;39.40;14.90;;;;;;21247046;28;20051;-62
2022/07/14 16:55:44;;;;;;;11.52;7.22;;;39.30;14.60;;;;;;21247916;28;20134;-58
2022/07/14 17:16:06;;;;;;;16.10;6.97;;;39.50;14.60;;;;;;21230354;28;20054;-52
2022/07/14 17:26:08;;;;;;;12.52;6.80;;;39.40;13.90;;;;;;21245296;28;20531;-56
2022/07/14 17:36:10;;;;;;;11.45;5.50;;;39.40;14.10;;;;;;21246390;27;20122;-55
2022/07/14 17:46:12;;;;;;;12.88;5.07;;;39.20;14.00;;;;;;21260845;27;20047;-56
2022/07/14 17:56:15;;;;;;;13.35;5.25;;;39.10;12.80;;;;;;21259270;27;20487;-56
2022/07/14 18:06:16;;;;;;;11.52;5.68;;;39.00;12.90;;;;;;21258545;27;20059;-56
2022/07/14 18:16:18;;;;;;;14.40;5.97;;;38.90;13.10;;;;;;21257935;27;20050;-56
2022/07/14 18:26:20;;;;;;;15.85;5.22;;;38.70;13.30;;;;;;21257364;27;20045;-55
2022/07/14 18:36:22;;;;;;;11.48;5.22;;;38.60;13.50;;;;;;21256692;27;20051;-54
2022/07/14 18:46:23;;;;;;;11.25;5.15;;;38.50;13.40;;;;;;21255740;27;20046;-56
2022/07/14 18:56:25;;;;;;;15.85;5.57;;;38.30;13.60;;;;;;21253852;27;20047;-56
2022/07/14 19:06:27;;;;;;;9.73;5.32;;;38.10;13.70;;;;;;21254472;27;20047;-56
2022/07/14 19:16:29;;;;;;;12.57;5.18;;;37.90;13.90;;;;;;21252041;27;20051;-55
2022/07/14 19:26:30;;;;;;;10.55;4.45;;;37.80;13.60;;;;;;21233156;27;20043;-58
2022/07/14 19:36:32;;;;;;;13.93;4.78;;;37.60;13.80;;;;;;21250587;27;20082;-56
2022/07/14 19:46:33;;;;;;;14.43;4.82;;;37.30;15.40;;;;;;21249910;27;20067;-54
2022/07/14 19:56:35;;;;;;;14.30;4.55;;;36.90;15.20;;;;;;21251339;27;20475;-53
2022/07/14 20:06:37;;;;;;;15.45;5.38;;;36.70;14.90;;;;;;21247276;27;20193;-52
2022/07/14 20:16:40;;;;;;;12.32;4.65;;;36.50;14.20;;;;;;21231118;27;20047;-54
2022/07/14 20:26:42;;;;;;;13.13;5.35;;;36.30;14.40;;;;;;21247610;27;20039;-53
2022/07/14 20:36:45;;;;;;;15.27;4.72;;;36.10;14.40;;;;;;21246900;27;20108;-54
2022/07/14 20:57:08;;;;;;;13.60;4.90;;;35.90;14.10;;;;;;21246531;28;20051;-57
2022/07/14 21:07:09;;;;;;;14.18;5.88;;;35.90;14.10;;;;;;21245681;28;20048;-57
2022/07/14 21:17:11;;;;;;;14.38;5.40;;;35.70;14.30;;;;;;21256790;27;20051;-57
2022/07/14 21:27:14;;;;;;;14.75;5.20;;;35.50;14.40;;;;;;21262018;27;20054;-55
2022/07/14 21:37:17;;;;;;;13.48;5.25;;;35.40;14.40;;;;;;21260601;27;20050;-58
2022/07/14 21:47:18;;;;;;;9.70;5.82;;;35.20;14.80;;;;;;21260474;27;20130;-55
2022/07/14 21:57:21;;;;;;;13.13;6.50;;;35.00;14.90;;;;;;21260186;27;20058;-55
2022/07/14 22:07:26;;;;;;;14.82;6.18;;;34.80;15.00;;;;;;21259542;27;20149;-55
2022/07/14 22:17:28;;;;;;;15.93;6.28;;;34.60;15.20;;;;;;21258993;27;20047;-56
2022/07/14 22:27:31;;;;;;;12.07;6.53;;;34.40;15.30;;;;;;21256229;27;20050;-56
2022/07/14 22:37:33;;;;;;;14.10;6.38;;;34.20;15.40;;;;;;21256515;27;20054;-55
2022/07/14 22:47:35;;;;;;;11.25;6.28;;;34.00;15.60;;;;;;21256403;27;20047;-56
2022/07/14 22:57:37;;;;;;;12.75;6.43;;;33.90;15.70;;;;;;21255407;27;20072;-57
2022/07/14 23:07:39;;;;;;;11.80;6.60;;;33.60;15.60;;;;;;21253617;27;20583;-57
2022/07/14 23:18:02;;;;;;;16.40;8.63;;;33.60;15.80;;;;;;21253144;27;20057;-55
2022/07/14 23:28:05;;;;;;;12.38;6.38;;;33.50;15.50;;;;;;21252780;27;20410;-56
2022/07/14 23:38:07;;;;;;;9.55;6.70;;;33.20;15.30;;;;;;21233305;27;20507;-56
2022/07/14 23:48:08;;;;;;;11.48;6.55;;;33.10;15.20;;;;;;21251946;27;20047;-56
2022/07/14 23:58:10;;;;;;;9.57;6.50;;;32.90;15.30;;;;;;21250163;27;20043;-57
